createdAt,value
2018-08-13T00:01:38.658Z,21.30
2018-08-13T00:04:14.248Z,21.30
2018-08-13T00:06:49.222Z,21.30
2018-08-13T00:13:08.654Z,21.30
2018-08-13T00:15:43.613Z,21.30
2018-08-13T00:18:19.470Z,21.30
2018-08-13T00:20:54.623Z,21.30
2018-08-13T00:23:29.501Z,21.30
2018-08-13T00:26:05.150Z,21.30
2018-08-13T00:28:40.618Z,21.30
2018-08-13T00:31:15.524Z,21.30
2018-08-13T00:33:50.579Z,21.30
2018-08-13T00:36:25.622Z,21.20
2018-08-13T00:39:00.849Z,21.20
2018-08-13T00:41:36.625Z,21.20
2018-08-13T00:44:11.635Z,21.20
2018-08-13T00:46:47.622Z,21.10
2018-08-13T00:49:22.617Z,21.10
2018-08-13T00:51:58.107Z,21.10
2018-08-13T00:54:33.097Z,21.10
2018-08-13T00:57:09.011Z,21.10
2018-08-13T00:59:43.956Z,21.10
2018-08-13T01:02:19.390Z,21.10
2018-08-13T01:04:54.188Z,21.10
2018-08-13T01:07:29.148Z,21.00
2018-08-13T01:10:05.305Z,21.00
2018-08-13T01:12:40.549Z,21.00
2018-08-13T01:15:16.849Z,21.00
2018-08-13T01:17:52.238Z,20.90
2018-08-13T01:20:27.436Z,20.90
2018-08-13T01:23:02.483Z,20.90
2018-08-13T01:25:37.531Z,20.90
2018-08-13T01:28:12.354Z,20.90
2018-08-13T01:30:47.510Z,20.80
2018-08-13T01:33:22.730Z,20.80
2018-08-13T01:35:57.548Z,20.80
2018-08-13T01:38:33.121Z,20.80
2018-08-13T01:41:08.990Z,20.80
2018-08-13T01:43:44.098Z,20.80
2018-08-13T01:46:19.632Z,20.80
2018-08-13T01:48:54.894Z,20.80
2018-08-13T01:51:30.332Z,20.70
2018-08-13T01:54:05.475Z,20.70
2018-08-13T01:56:40.462Z,20.70
2018-08-13T01:59:15.475Z,20.80
2018-08-13T02:01:50.831Z,20.80
2018-08-13T02:04:26.527Z,20.80
2018-08-13T02:07:02.202Z,20.70
2018-08-13T02:09:39.001Z,20.80
2018-08-13T02:12:15.018Z,20.70
2018-08-13T02:14:50.023Z,20.80
2018-08-13T02:17:25.510Z,20.80
2018-08-13T02:20:00.953Z,20.80
2018-08-13T02:22:36.188Z,20.90
2018-08-13T02:25:12.053Z,20.90
2018-08-13T02:27:48.104Z,20.90
2018-08-13T02:30:23.243Z,21.00
2018-08-13T02:32:58.874Z,21.00
2018-08-13T02:35:34.222Z,21.00
2018-08-13T02:38:09.738Z,21.00
2018-08-13T02:40:46.040Z,21.00
2018-08-13T02:43:21.460Z,21.00
2018-08-13T02:45:56.586Z,21.00
2018-08-13T02:48:31.723Z,21.00
2018-08-13T02:51:08.246Z,21.00
2018-08-13T02:53:44.001Z,21.00
2018-08-13T02:56:19.899Z,20.90
2018-08-13T02:58:54.715Z,21.00
2018-08-13T03:01:30.707Z,20.90
2018-08-13T03:04:05.686Z,20.90
2018-08-13T03:06:40.643Z,20.90
2018-08-13T03:09:15.957Z,21.00
2018-08-13T03:11:50.950Z,20.90
2018-08-13T03:14:25.980Z,21.00
2018-08-13T03:17:01.344Z,21.00
2018-08-13T03:19:36.541Z,21.00
2018-08-13T03:22:13.310Z,21.00
2018-08-13T03:24:48.230Z,21.00
2018-08-13T03:27:23.548Z,21.00
2018-08-13T03:29:59.698Z,21.00
2018-08-13T03:32:34.730Z,21.00
2018-08-13T03:35:10.804Z,20.90
2018-08-13T03:37:45.773Z,20.90
2018-08-13T03:40:20.933Z,20.90
2018-08-13T03:42:56.269Z,20.90
2018-08-13T03:45:31.076Z,20.80
2018-08-13T03:48:06.528Z,20.90
2018-08-13T03:50:41.445Z,20.80
2018-08-13T03:53:16.684Z,20.90
2018-08-13T03:55:51.597Z,20.80
2018-08-13T03:58:26.715Z,20.90
2018-08-13T04:01:01.947Z,20.90
2018-08-13T04:03:36.960Z,20.80
2018-08-13T04:06:12.211Z,20.80
2018-08-13T04:08:47.654Z,20.80
2018-08-13T04:11:22.909Z,20.70
2018-08-13T04:13:57.930Z,20.70
2018-08-13T04:16:33.129Z,20.60
2018-08-13T04:19:09.009Z,20.30
2018-08-13T04:21:43.962Z,20.10
2018-08-13T04:24:19.132Z,19.80
2018-08-13T04:26:54.183Z,19.60
2018-08-13T04:29:29.199Z,19.40
2018-08-13T04:32:04.317Z,19.20
2018-08-13T04:34:46.061Z,19.00
2018-08-13T04:37:21.342Z,18.80
2018-08-13T04:39:56.382Z,18.60
2018-08-13T04:42:31.514Z,18.50
2018-08-13T04:45:08.476Z,18.40
2018-08-13T04:47:53.023Z,18.40
2018-08-13T04:50:27.969Z,18.30
2018-08-13T04:53:03.449Z,18.30
2018-08-13T04:55:38.721Z,18.20
2018-08-13T04:58:14.501Z,18.10
2018-08-13T05:00:50.623Z,18.10
2018-08-13T05:03:25.832Z,18.10
2018-08-13T05:06:01.654Z,18.10
2018-08-13T05:08:36.692Z,18.10
2018-08-13T05:11:12.074Z,18.10
2018-08-13T05:13:47.608Z,18.10
2018-08-13T05:16:23.049Z,18.10
2018-08-13T05:18:58.091Z,18.10
2018-08-13T05:21:33.184Z,18.20
2018-08-13T05:24:08.125Z,18.10
2018-08-13T05:26:43.318Z,18.10
2018-08-13T05:29:18.402Z,18.20
2018-08-13T05:31:53.477Z,18.20
2018-08-13T05:34:28.677Z,18.20
2018-08-13T05:37:03.815Z,18.20
2018-08-13T05:39:38.745Z,18.20
2018-08-13T05:42:15.096Z,18.30
2018-08-13T05:44:50.290Z,18.30
2018-08-13T05:47:25.190Z,18.20
2018-08-13T05:50:00.360Z,18.20
2018-08-13T05:52:42.370Z,18.10
2018-08-13T05:55:17.378Z,18.10
2018-08-13T05:57:52.533Z,18.10
2018-08-13T06:00:27.968Z,17.90
2018-08-13T06:03:03.136Z,17.90
2018-08-13T06:05:38.397Z,17.80
2018-08-13T06:08:14.392Z,17.80
2018-08-13T06:10:50.381Z,17.70
2018-08-13T06:13:25.447Z,17.70
2018-08-13T06:16:00.367Z,17.60
2018-08-13T06:18:35.645Z,17.50
2018-08-13T06:21:10.746Z,17.50
2018-08-13T06:23:46.100Z,17.60
2018-08-13T06:26:20.996Z,17.60
2018-08-13T06:28:56.355Z,17.70
2018-08-13T06:31:31.881Z,17.70
2018-08-13T06:34:07.011Z,17.80
2018-08-13T06:36:42.778Z,17.80
2018-08-13T06:39:19.220Z,17.90
2018-08-13T06:41:54.140Z,17.90
2018-08-13T06:44:29.445Z,17.90
2018-08-13T06:47:04.617Z,17.90
2018-08-13T06:49:40.360Z,18.00
2018-08-13T06:52:15.987Z,18.00
2018-08-13T06:54:51.329Z,18.10
2018-08-13T06:57:26.522Z,18.20
2018-08-13T07:00:01.580Z,18.20
2018-08-13T07:02:36.863Z,18.30
2018-08-13T07:05:12.023Z,18.40
2018-08-13T07:07:47.340Z,18.40
2018-08-13T07:10:22.720Z,18.50
2018-08-13T07:12:58.629Z,18.50
2018-08-13T07:15:34.036Z,18.60
2018-08-13T07:18:10.163Z,18.60
2018-08-13T07:20:45.716Z,18.60
2018-08-13T07:23:20.770Z,18.60
2018-08-13T07:25:55.840Z,18.70
2018-08-13T07:28:31.261Z,18.70
2018-08-13T07:31:07.861Z,18.70
2018-08-13T07:33:43.988Z,18.70
2018-08-13T07:36:19.431Z,18.80
2018-08-13T07:38:54.676Z,18.80
2018-08-13T07:41:30.021Z,18.80
2018-08-13T07:44:05.652Z,18.90
2018-08-13T07:46:40.868Z,18.90
2018-08-13T07:49:16.772Z,18.90
2018-08-13T07:51:52.011Z,19.00
2018-08-13T07:54:27.611Z,19.00
2018-08-13T07:57:03.167Z,19.00
2018-08-13T07:59:38.993Z,19.00
2018-08-13T08:02:14.053Z,19.10
2018-08-13T08:04:50.997Z,19.10
2018-08-13T08:07:26.340Z,19.10
2018-08-13T08:10:02.459Z,19.20
2018-08-13T08:12:38.358Z,19.20
2018-08-13T08:15:15.379Z,19.20
2018-08-13T08:17:50.682Z,19.20
2018-08-13T08:20:25.671Z,19.20
2018-08-13T08:23:01.742Z,19.10
2018-08-13T08:25:36.906Z,19.10
2018-08-13T08:28:12.087Z,19.00
2018-08-13T08:30:47.375Z,18.90
2018-08-13T08:33:23.632Z,18.90
2018-08-13T08:35:58.847Z,18.90
2018-08-13T08:38:34.618Z,18.90
2018-08-13T08:41:10.926Z,18.90
2018-08-13T08:43:46.263Z,18.80
2018-08-13T08:46:21.585Z,18.80
2018-08-13T08:48:56.706Z,18.80
2018-08-13T08:51:32.123Z,18.80
2018-08-13T08:54:07.878Z,18.90
2018-08-13T08:56:43.320Z,18.90
2018-08-13T08:59:19.412Z,18.90
2018-08-13T09:01:55.389Z,18.90
2018-08-13T09:04:30.586Z,18.90
2018-08-13T09:07:05.729Z,18.90
2018-08-13T09:09:41.497Z,19.00
2018-08-13T09:12:16.273Z,19.00
2018-08-13T09:14:51.445Z,19.00
2018-08-13T09:17:37.519Z,19.10
2018-08-13T09:20:23.775Z,19.10
2018-08-13T09:23:10.045Z,19.10
2018-08-13T09:25:56.175Z,19.10
2018-08-13T09:28:42.690Z,19.20
2018-08-13T09:32:37.647Z,19.30
2018-08-13T09:35:20.787Z,19.30
2018-08-13T09:37:57.824Z,19.40
2018-08-13T09:40:33.578Z,19.50
2018-08-13T09:43:08.755Z,19.60
2018-08-13T09:45:44.204Z,19.60
2018-08-13T09:48:20.169Z,19.70
2018-08-13T09:50:55.465Z,19.80
2018-08-13T09:53:30.566Z,19.90
2018-08-13T09:56:06.110Z,20.10
2018-08-13T09:58:41.102Z,20.20
2018-08-13T10:01:16.239Z,20.30
2018-08-13T10:03:51.593Z,20.40
2018-08-13T10:06:26.900Z,20.50
2018-08-13T10:09:01.768Z,20.50
2018-08-13T10:11:36.663Z,20.50
2018-08-13T10:14:12.237Z,20.50
2018-08-13T10:16:47.670Z,20.60
2018-08-13T10:19:22.595Z,20.70
2018-08-13T10:21:57.773Z,20.80
2018-08-13T10:24:33.078Z,20.90
2018-08-13T10:27:08.399Z,21.00
2018-08-13T10:29:43.670Z,21.20
2018-08-13T10:32:19.228Z,21.50
2018-08-13T10:34:54.588Z,21.60
2018-08-13T10:37:30.059Z,21.70
2018-08-13T10:40:14.840Z,21.90
2018-08-13T10:42:50.045Z,22.00
2018-08-13T10:45:25.170Z,22.00
2018-08-13T10:48:00.374Z,22.10
2018-08-13T10:50:35.630Z,22.20
2018-08-13T10:53:10.529Z,22.30
2018-08-13T10:55:45.527Z,22.40
2018-08-13T10:58:21.217Z,22.50
2018-08-13T11:00:56.426Z,22.70
2018-08-13T11:03:33.187Z,22.70
2018-08-13T11:06:08.295Z,22.60
2018-08-13T11:08:46.663Z,22.40
2018-08-13T11:11:22.012Z,22.40
2018-08-13T11:13:57.176Z,22.40
2018-08-13T11:16:32.416Z,22.40
2018-08-13T11:19:07.818Z,22.50
2018-08-13T11:21:42.994Z,22.60
2018-08-13T11:24:18.272Z,22.60
2018-08-13T11:26:54.306Z,22.70
2018-08-13T11:29:29.350Z,22.70
2018-08-13T11:32:04.770Z,22.60
2018-08-13T11:34:34.590Z,22.60
2018-08-13T11:37:03.945Z,22.70
2018-08-13T11:39:33.775Z,22.70
2018-08-13T11:42:03.617Z,22.80
2018-08-13T11:44:33.089Z,22.80
2018-08-13T11:47:02.469Z,22.80
2018-08-13T11:49:32.182Z,22.80
2018-08-13T11:52:01.950Z,22.90
2018-08-13T11:54:31.352Z,22.90
2018-08-13T11:57:01.085Z,22.90
2018-08-13T11:59:30.257Z,22.80
2018-08-13T12:01:59.886Z,22.70
2018-08-13T12:04:29.365Z,22.40
2018-08-13T12:06:59.316Z,21.90
2018-08-13T12:09:29.459Z,21.40
2018-08-13T12:11:58.926Z,20.90
2018-08-13T12:14:34.219Z,20.20
2018-08-13T12:17:09.768Z,19.60
2018-08-13T12:19:44.856Z,19.40
2018-08-13T12:22:19.917Z,19.30
2018-08-13T12:24:55.803Z,19.30
2018-08-13T12:27:31.421Z,19.40
2018-08-13T12:30:08.938Z,19.50
2018-08-13T12:32:43.923Z,19.60
2018-08-13T12:35:19.717Z,19.70
2018-08-13T12:37:54.767Z,19.80
2018-08-13T12:40:30.016Z,19.90
2018-08-13T12:43:05.380Z,20.00
2018-08-13T12:45:40.584Z,20.20
2018-08-13T12:48:16.240Z,20.40
2018-08-13T12:50:51.610Z,20.30
2018-08-13T12:53:27.172Z,20.10
2018-08-13T12:56:02.679Z,20.10
2018-08-13T12:58:38.263Z,20.20
2018-08-13T13:01:13.447Z,20.30
2018-08-13T13:03:48.780Z,20.20
2018-08-13T13:06:24.087Z,20.00
2018-08-13T13:08:59.628Z,20.00
2018-08-13T13:11:34.652Z,19.90
2018-08-13T13:14:10.500Z,19.80
2018-08-13T13:16:45.924Z,19.80
2018-08-13T13:19:20.840Z,20.10
2018-08-13T13:21:56.175Z,20.10
2018-08-13T13:24:32.182Z,20.20
2018-08-13T13:27:08.179Z,20.20
2018-08-13T13:29:43.583Z,20.00
2018-08-13T13:32:18.762Z,19.90
2018-08-13T13:34:54.645Z,19.90
2018-08-13T13:37:29.810Z,19.90
2018-08-13T13:40:07.209Z,20.10
2018-08-13T13:42:42.857Z,20.20
2018-08-13T13:45:18.958Z,20.30
2018-08-13T13:47:55.433Z,20.30
2018-08-13T13:50:31.141Z,20.30
2018-08-13T13:53:06.907Z,20.10
2018-08-13T13:55:42.603Z,20.10
2018-08-13T13:58:18.036Z,19.90
2018-08-13T14:00:53.430Z,19.60
2018-08-13T14:03:28.678Z,19.40
2018-08-13T14:06:04.068Z,19.00
2018-08-13T14:08:39.192Z,18.50
2018-08-13T14:11:14.794Z,18.20
2018-08-13T14:13:52.956Z,18.10
2018-08-13T14:16:28.429Z,18.00
2018-08-13T14:18:58.307Z,18.00
2018-08-13T14:21:33.668Z,18.00
2018-08-13T14:24:08.807Z,18.00
2018-08-13T14:26:44.906Z,17.90
2018-08-13T14:29:20.095Z,18.00
2018-08-13T14:31:55.697Z,18.10
2018-08-13T14:34:30.945Z,18.30
2018-08-13T14:37:06.316Z,18.40
2018-08-13T14:39:42.324Z,18.50
2018-08-13T14:42:17.667Z,18.70
2018-08-13T14:44:53.289Z,18.80
2018-08-13T14:47:30.200Z,18.90
2018-08-13T14:50:06.646Z,19.00
2018-08-13T14:52:43.604Z,18.90
2018-08-13T14:55:21.293Z,18.70
2018-08-13T14:57:56.615Z,18.60
2018-08-13T15:00:34.132Z,18.60
2018-08-13T15:03:11.874Z,18.60
2018-08-13T15:05:47.203Z,18.60
2018-08-13T15:08:22.411Z,18.70
2018-08-13T15:10:57.947Z,18.70
2018-08-13T15:13:32.992Z,18.70
2018-08-13T15:16:08.669Z,18.70
2018-08-13T15:18:43.755Z,18.50
2018-08-13T15:21:19.008Z,18.50
2018-08-13T15:23:54.367Z,18.50
2018-08-13T15:26:30.086Z,18.50
2018-08-13T15:29:05.091Z,18.60
2018-08-13T15:31:40.326Z,18.50
2018-08-13T15:34:15.366Z,18.60
2018-08-13T15:36:50.543Z,18.70
2018-08-13T15:39:25.470Z,18.80
2018-08-13T15:42:01.137Z,18.80
2018-08-13T15:44:36.373Z,18.80
2018-08-13T15:47:11.845Z,18.90
2018-08-13T15:49:47.467Z,19.20
2018-08-13T15:52:17.139Z,19.40
2018-08-13T15:54:52.292Z,19.50
2018-08-13T15:57:28.171Z,19.50
2018-08-13T16:00:03.675Z,19.40
2018-08-13T16:02:39.231Z,19.30
2018-08-13T16:05:15.893Z,19.40
2018-08-13T16:07:52.713Z,19.30
2018-08-13T16:10:28.511Z,19.20
2018-08-13T16:13:03.396Z,19.20
2018-08-13T16:15:39.557Z,19.10
2018-08-13T16:18:14.882Z,18.90
2018-08-13T16:20:50.221Z,18.80
2018-08-13T16:23:25.605Z,18.80
2018-08-13T16:26:00.642Z,18.90
2018-08-13T16:28:35.856Z,18.90
2018-08-13T16:31:11.222Z,19.00
2018-08-13T16:33:46.290Z,19.10
2018-08-13T16:36:21.263Z,19.30
2018-08-13T16:38:56.367Z,19.40
2018-08-13T16:41:31.511Z,19.50
2018-08-13T16:44:07.372Z,19.50
2018-08-13T16:46:43.044Z,19.60
2018-08-13T16:49:18.321Z,19.60
2018-08-13T16:51:53.208Z,19.70
2018-08-13T16:54:28.644Z,19.80
2018-08-13T16:57:03.876Z,19.80
2018-08-13T16:59:38.870Z,19.90
2018-08-13T17:02:13.950Z,19.90
2018-08-13T17:04:49.430Z,19.90
2018-08-13T17:07:24.795Z,19.80
2018-08-13T17:10:00.767Z,19.80
2018-08-13T17:12:36.043Z,19.70
2018-08-13T17:15:11.986Z,19.60
2018-08-13T17:17:49.571Z,19.50
2018-08-13T17:20:31.546Z,19.40
2018-08-13T17:23:07.102Z,19.30
2018-08-13T17:25:42.363Z,19.30
2018-08-13T17:28:17.659Z,19.20
2018-08-13T17:30:53.412Z,19.20
2018-08-13T17:33:29.125Z,19.20
2018-08-13T17:36:04.874Z,19.30
2018-08-13T17:38:39.818Z,19.30
2018-08-13T17:41:14.935Z,19.40
2018-08-13T17:43:49.878Z,19.50
2018-08-13T17:46:24.917Z,19.60
2018-08-13T17:49:00.165Z,19.60
2018-08-13T17:51:35.477Z,19.60
2018-08-13T17:54:10.730Z,19.50
2018-08-13T17:56:48.834Z,19.50
2018-08-13T17:59:23.845Z,19.40
2018-08-13T18:01:53.338Z,19.30
2018-08-13T18:04:28.793Z,19.30
2018-08-13T18:07:04.281Z,19.30
2018-08-13T18:09:39.364Z,19.30
2018-08-13T18:12:14.504Z,19.30
2018-08-13T18:14:50.456Z,19.30
2018-08-13T18:17:25.705Z,19.20
2018-08-13T18:20:01.338Z,19.20
2018-08-13T18:22:36.431Z,19.10
2018-08-13T18:25:13.657Z,19.10
2018-08-13T18:27:50.590Z,19.10
2018-08-13T18:30:27.151Z,19.00
2018-08-13T18:33:03.711Z,19.00
2018-08-13T18:35:46.996Z,18.90
2018-08-13T18:38:22.351Z,18.90
2018-08-13T18:40:57.855Z,18.90
2018-08-13T18:43:33.724Z,18.90
2018-08-13T18:46:09.103Z,18.90
2018-08-13T18:48:44.890Z,18.90
2018-08-13T18:51:23.269Z,18.90
2018-08-13T18:53:58.522Z,18.90
2018-08-13T18:56:33.963Z,18.80
2018-08-13T18:59:09.566Z,18.80
2018-08-13T19:01:44.576Z,18.70
2018-08-13T19:04:19.696Z,18.70
2018-08-13T19:06:54.984Z,18.70
2018-08-13T19:09:30.407Z,18.70
2018-08-13T19:12:06.047Z,18.70
2018-08-13T19:14:41.683Z,18.70
2018-08-13T19:17:17.650Z,18.70
2018-08-13T19:19:53.166Z,18.70
2018-08-13T19:22:28.493Z,18.60
2018-08-13T19:25:03.791Z,18.60
2018-08-13T19:27:39.934Z,18.60
2018-08-13T19:30:16.887Z,18.60
2018-08-13T19:32:52.659Z,18.60
2018-08-13T19:35:28.037Z,18.50
2018-08-13T19:38:03.317Z,18.50
2018-08-13T19:40:39.183Z,18.50
2018-08-13T19:43:14.692Z,18.50
2018-08-13T19:45:50.023Z,18.50
2018-08-13T19:48:25.757Z,18.50
2018-08-13T19:51:01.156Z,18.40
2018-08-13T19:53:36.924Z,18.40
2018-08-13T19:56:12.577Z,18.40
2018-08-13T19:58:48.118Z,18.40
2018-08-13T20:01:23.547Z,18.40
2018-08-13T20:03:58.744Z,18.30
2018-08-13T20:06:34.554Z,18.30
2018-08-13T20:09:11.460Z,18.30
2018-08-13T20:11:51.360Z,18.30
2018-08-13T20:14:27.137Z,18.30
2018-08-13T20:16:56.875Z,18.20
2018-08-13T20:19:32.995Z,18.20
2018-08-13T20:22:14.466Z,18.20
2018-08-13T20:24:49.779Z,18.20
2018-08-13T20:27:25.961Z,18.20
2018-08-13T20:30:01.956Z,18.10
2018-08-13T20:32:37.560Z,18.20
2018-08-13T20:35:13.123Z,18.20
2018-08-13T20:37:49.409Z,18.20
2018-08-13T20:40:25.241Z,18.10
2018-08-13T20:43:00.365Z,18.10
2018-08-13T20:45:35.350Z,18.10
2018-08-13T20:48:11.566Z,18.10
2018-08-13T20:50:47.328Z,18.10
2018-08-13T20:53:22.605Z,18.00
2018-08-13T20:55:58.771Z,18.00
2018-08-13T20:58:33.983Z,18.00
2018-08-13T21:01:09.314Z,18.00
2018-08-13T21:03:44.824Z,18.00
2018-08-13T21:06:19.989Z,17.90
2018-08-13T21:08:55.862Z,17.90
2018-08-13T21:11:25.408Z,17.90
2018-08-13T21:14:00.534Z,18.00
2018-08-13T21:16:35.834Z,18.00
2018-08-13T21:19:10.939Z,17.90
2018-08-13T21:21:46.201Z,17.90
2018-08-13T21:24:21.362Z,17.90
2018-08-13T21:26:56.685Z,18.00
2018-08-13T21:29:32.787Z,18.00
2018-08-13T21:32:08.561Z,17.90
2018-08-13T21:34:43.716Z,17.90
2018-08-13T21:37:19.868Z,17.90
2018-08-13T21:39:55.890Z,18.00
2018-08-13T21:42:31.331Z,17.90
2018-08-13T21:45:07.925Z,18.00
2018-08-13T21:47:43.071Z,17.90
2018-08-13T21:50:20.775Z,17.90
2018-08-13T21:52:56.256Z,17.90
2018-08-13T21:55:32.052Z,17.90
2018-08-13T21:58:07.400Z,17.90
2018-08-13T22:00:47.986Z,17.90
2018-08-13T22:03:23.977Z,17.90
2018-08-13T22:05:59.810Z,17.90
2018-08-13T22:08:35.408Z,17.90
2018-08-13T22:11:11.472Z,17.90
2018-08-13T22:13:51.479Z,17.90
2018-08-13T22:16:26.945Z,17.90
2018-08-13T22:19:02.586Z,17.90
2018-08-13T22:21:32.725Z,17.90
2018-08-13T22:24:19.395Z,17.90
2018-08-13T22:26:54.590Z,17.80
2018-08-13T22:29:29.595Z,17.90
2018-08-13T22:32:05.485Z,17.80
2018-08-13T22:34:41.198Z,17.80
2018-08-13T22:37:16.567Z,17.90
2018-08-13T22:39:51.506Z,17.90
2018-08-13T22:42:26.725Z,17.90
2018-08-13T22:45:02.597Z,17.90
2018-08-13T22:47:38.114Z,17.90
2018-08-13T22:50:14.093Z,17.90
2018-08-13T22:52:50.160Z,17.90
2018-08-13T22:55:25.538Z,17.90
2018-08-13T22:58:01.077Z,18.00
2018-08-13T23:00:36.718Z,18.00
2018-08-13T23:03:12.222Z,18.00
2018-08-13T23:05:48.479Z,18.00
2018-08-13T23:08:23.577Z,18.00
2018-08-13T23:10:58.886Z,18.00
2018-08-13T23:13:34.404Z,18.00
2018-08-13T23:16:10.068Z,18.00
2018-08-13T23:18:45.574Z,18.00
2018-08-13T23:21:20.710Z,18.00
2018-08-13T23:23:55.928Z,18.00
2018-08-13T23:26:31.634Z,18.00
2018-08-13T23:29:06.991Z,18.00
2018-08-13T23:31:42.196Z,18.00
2018-08-13T23:34:17.414Z,18.00
2018-08-13T23:36:52.310Z,18.00
2018-08-13T23:39:28.224Z,18.00
2018-08-13T23:42:03.237Z,18.00
2018-08-13T23:44:38.194Z,18.10
2018-08-13T23:47:15.865Z,18.10
2018-08-13T23:49:51.290Z,18.10
2018-08-13T23:52:26.406Z,18.10
2018-08-13T23:55:01.519Z,18.10
2018-08-13T23:57:36.598Z,18.10
